Time;durP1;ratioP1;P1;durP2;ratioP2;P2;SDS_P1;SDS_P2;PMS_P1;PMS_P2;Temp;Humidity;BMP_temperature;BMP_pressure;BME280_temperature;BME280_humidity;BME280_pressure;Samples;Min_cycle;Max_cycle;Signal;HPM_P1;HPM_P2
2022/03/02 00:00:45;;;;;;;;;44.50;37.50;;;;;10.94;44.32;101702.13;5058703;27;45252;-56
2022/03/02 00:03:10;;;;;;;;;38.50;35.00;;;;;10.91;44.41;101702.22;5066020;28;45500;-56
2022/03/02 00:05:36;;;;;;;;;44.75;37.00;;;;;10.89;45.43;101690.78;5063595;28;45451;-57
2022/03/02 00:08:03;;;;;;;;;44.50;37.25;;;;;10.85;45.11;101692.69;5057757;28;45989;-52
2022/03/02 00:10:29;;;;;;;;;49.25;34.50;;;;;10.82;44.86;101686.63;5089712;27;45547;-57
2022/03/02 00:12:54;;;;;;;;;54.50;37.75;;;;;10.77;44.85;101680.59;5060474;28;45332;-59
2022/03/02 00:15:20;;;;;;;;;53.00;41.50;;;;;10.76;44.47;101679.75;5076985;27;45417;-60
2022/03/02 00:17:46;;;;;;;;;47.00;38.75;;;;;10.74;44.54;101678.06;5074484;28;45451;-62
2022/03/02 00:20:12;;;;;;;;;42.00;35.25;;;;;10.71;45.48;101680.88;5065204;27;45397;-63
2022/03/02 00:22:38;;;;;;;;;46.75;37.25;;;;;10.72;45.07;101674.63;5057009;28;45317;-60
2022/03/02 00:25:04;;;;;;;;;38.00;35.25;;;;;10.72;45.38;101663.97;5095456;27;45445;-59
2022/03/02 00:27:29;;;;;;;;;38.50;37.25;;;;;10.71;45.02;101671.09;5089097;27;47077;-61
2022/03/02 00:29:55;;;;;;;;;46.75;39.00;;;;;10.67;45.43;101671.25;5069327;28;45401;-61
2022/03/02 00:32:20;;;;;;;;;40.50;38.50;;;;;10.64;45.77;101665.13;5077315;28;45361;-59
2022/03/02 00:34:46;;;;;;;;;48.75;40.25;;;;;10.60;45.91;101654.69;5073964;27;45639;-60
2022/03/02 00:37:12;;;;;;;;;41.00;35.25;;;;;10.61;45.49;101662.59;5071406;28;46316;-62
2022/03/02 00:39:38;;;;;;;;;44.00;39.00;;;;;10.57;45.79;101671.63;5057516;27;45307;-59
2022/03/02 00:42:06;;;;;;;;;37.50;33.00;;;;;10.56;45.62;101661.91;5072012;28;45462;-52
2022/03/02 00:44:32;;;;;;;;;40.00;35.50;;;;;10.50;45.15;101662.13;5067179;27;45579;-55
2022/03/02 00:46:58;;;;;;;;;38.25;35.50;;;;;10.44;45.72;101659.72;5071781;28;45458;-64
2022/03/02 00:49:26;;;;;;;;;44.75;38.75;;;;;10.44;45.75;101665.06;5071282;27;45493;-57
2022/03/02 00:51:53;;;;;;;;;52.50;39.75;;;;;10.44;45.83;101658.88;5068445;27;45470;-60
2022/03/02 00:54:19;;;;;;;;;42.75;37.00;;;;;10.42;46.04;101656.28;5060857;27;45601;-57
2022/03/02 00:56:45;;;;;;;;;45.00;38.25;;;;;10.37;46.11;101662.66;5066835;27;45511;-54
2022/03/02 00:59:10;;;;;;;;;47.50;38.00;;;;;10.35;46.19;101654.75;5056606;28;45331;-59
2022/03/02 01:01:36;;;;;;;;;46.50;38.75;;;;;10.33;46.22;101653.94;5066234;28;45543;-53
2022/03/02 01:04:01;;;;;;;;;41.75;32.50;;;;;10.28;46.09;101663.88;5056607;28;45282;-52
2022/03/02 01:06:27;;;;;;;;;44.25;36.50;;;;;10.23;46.18;101660.53;5072177;27;46026;-56
2022/03/02 01:08:53;;;;;;;;;44.75;37.00;;;;;10.21;46.25;101659.69;5063754;27;45484;-60
2022/03/02 01:11:18;;;;;;;;;40.25;34.50;;;;;10.16;46.42;101648.38;5076666;27;45303;-54
2022/03/02 01:13:43;;;;;;;;;45.00;39.50;;;;;10.14;46.42;101650.19;5076574;27;45718;-56
2022/03/02 01:16:09;;;;;;;;;48.50;38.00;;;;;10.18;46.62;101658.03;5069309;27;45322;-56
2022/03/02 01:18:34;;;;;;;;;51.00;38.00;;;;;10.15;46.19;101644.81;5054450;28;45457;-53
2022/03/02 01:21:00;;;;;;;;;42.25;38.00;;;;;10.11;46.53;101652.97;5066771;28;45399;-54
2022/03/02 01:23:26;;;;;;;;;41.00;34.75;;;;;10.16;46.02;101643.06;5056342;28;45493;-57
2022/03/02 01:25:51;;;;;;;;;45.75;37.25;;;;;10.10;46.19;101641.50;5063161;27;45450;-60
2022/03/02 01:28:17;;;;;;;;;49.50;38.25;;;;;10.15;46.57;101652.81;5060256;28;45325;-65
2022/03/02 01:30:43;;;;;;;;;42.75;32.00;;;;;10.10;47.00;101646.81;5073921;27;45297;-57
2022/03/02 01:33:08;;;;;;;;;44.50;39.25;;;;;10.07;46.05;101640.75;5056387;28;45516;-56
2022/03/02 01:35:33;;;;;;;;;47.00;39.00;;;;;10.10;46.27;101637.97;5061411;28;45519;-59
2022/03/02 01:37:59;;;;;;;;;53.50;43.25;;;;;10.15;46.33;101641.31;5054640;28;45493;-58
2022/03/02 01:40:25;;;;;;;;;45.25;39.25;;;;;10.18;46.80;101644.75;5063765;28;45533;-62
2022/03/02 01:42:50;;;;;;;;;43.00;40.50;;;;;10.19;47.38;101634.97;5056353;28;45531;-59
2022/03/02 01:45:17;;;;;;;;;45.75;41.50;;;;;10.18;47.13;101625.25;5060180;28;45416;-54
2022/03/02 01:47:43;;;;;;;;;41.00;37.25;;;;;10.15;46.58;101628.88;5074171;28;45534;-56
2022/03/02 01:50:11;;;;;;;;;51.75;42.00;;;;;10.11;47.36;101619.28;5059210;27;45463;-58
2022/03/02 01:52:37;;;;;;;;;44.25;38.75;;;;;10.07;47.88;101620.34;5056136;28;45373;-60
2022/03/02 01:55:04;;;;;;;;;52.25;42.50;;;;;10.03;47.10;101622.25;5066028;27;45233;-57
2022/03/02 01:57:30;;;;;;;;;46.50;41.25;;;;;10.01;46.83;101624.06;5072098;27;45522;-56
2022/03/02 01:59:55;;;;;;;;;44.00;37.75;;;;;9.95;46.74;101612.81;5059094;28;45359;-55
2022/03/02 02:02:21;;;;;;;;;42.25;38.25;;;;;10.01;46.80;101605.47;5057264;28;45259;-57
2022/03/02 02:04:47;;;;;;;;;47.25;41.50;;;;;10.05;47.55;101615.09;5059288;28;47180;-57
2022/03/02 02:07:12;;;;;;;;;55.25;42.25;;;;;10.09;47.92;101609.66;5059849;27;45839;-56
2022/03/02 02:09:38;;;;;;;;;39.75;32.25;;;;;10.04;47.05;101599.22;5064422;27;45831;-58
2022/03/02 02:12:05;;;;;;;;;55.75;43.00;;;;;10.14;48.30;101607.69;5059316;28;45500;-56
2022/03/02 02:14:30;;;;;;;;;52.50;44.50;;;;;10.14;47.78;101610.34;5081884;27;45605;-57
2022/03/02 02:16:55;;;;;;;;;54.25;43.50;;;;;10.11;47.56;101602.47;5089153;27;45662;-60
2022/03/02 02:19:21;;;;;;;;;53.75;43.75;;;;;10.08;47.53;101594.63;5071383;28;45497;-55
2022/03/02 02:21:47;;;;;;;;;54.75;43.25;;;;;10.05;47.83;101593.84;5060816;28;45617;-62
2022/03/02 02:24:13;;;;;;;;;51.50;41.50;;;;;10.03;48.12;101587.72;5071085;27;45389;-54
2022/03/02 02:26:39;;;;;;;;;54.25;45.25;;;;;10.03;48.02;101598.34;5068546;27;45606;-54
2022/03/02 02:29:05;;;;;;;;;49.25;42.75;;;;;10.03;47.95;101587.72;5064108;28;45516;-59
2022/03/02 02:31:31;;;;;;;;;50.00;41.75;;;;;10.00;48.05;101577.16;5077351;28;45688;-58
2022/03/02 02:33:57;;;;;;;;;43.75;38.00;;;;;10.00;48.14;101574.50;5075829;28;45511;-52
2022/03/02 02:36:22;;;;;;;;;53.00;43.00;;;;;9.95;48.12;101581.81;5059569;28;45330;-51
2022/03/02 02:38:48;;;;;;;;;56.75;44.25;;;;;9.91;47.92;101569.56;5102156;27;45462;-58
2022/03/02 02:41:15;;;;;;;;;50.50;43.00;;;;;9.92;48.39;101573.97;5071905;28;45403;-59
2022/03/02 02:43:42;;;;;;;;;55.00;43.25;;;;;9.96;48.28;101580.88;5092177;27;45365;-59
2022/03/02 02:46:08;;;;;;;;;54.75;44.25;;;;;9.94;47.92;101574.75;5058454;28;45399;-56
2022/03/02 02:48:34;;;;;;;;;51.25;43.25;;;;;9.94;48.42;101572.09;5058991;28;45390;-59
2022/03/02 02:51:00;;;;;;;;;54.75;42.75;;;;;9.94;47.93;101560.63;5059194;28;45500;-55
2022/03/02 02:53:25;;;;;;;;;50.75;42.75;;;;;9.91;48.45;101558.94;5058031;28;45466;-52
2022/03/02 02:55:52;;;;;;;;;40.25;37.25;;;;;9.83;48.18;101544.19;5058580;28;45499;-54
2022/03/02 02:58:18;;;;;;;;;48.00;40.50;;;;;9.80;48.02;101539.88;5064160;28;45373;-54
2022/03/02 03:00:46;;;;;;;;;55.25;44.25;;;;;9.78;48.73;101540.88;5063016;28;45267;-55
2022/03/02 03:03:12;;;;;;;;;57.75;42.75;;;;;9.74;48.67;101537.44;5057911;28;45623;-57
2022/03/02 03:05:38;;;;;;;;;36.00;30.25;;;;;9.73;48.95;101527.72;5057933;28;45338;-56
2022/03/02 03:08:07;;;;;;;;;50.75;42.25;;;;;9.70;48.94;101525.19;5077451;27;45539;-61
2022/03/02 03:10:33;;;;;;;;;51.25;42.50;;;;;9.69;49.13;101528.78;5065333;27;45266;-56
2022/03/02 03:13:00;;;;;;;;;50.25;41.50;;;;;9.71;49.47;101529.59;5057562;28;46132;-62
2022/03/02 03:15:25;;;;;;;;;54.75;43.00;;;;;9.69;48.48;101527.00;5074892;28;46056;-58
2022/03/02 03:17:51;;;;;;;;;55.00;41.50;;;;;9.70;49.55;101525.19;5110200;27;45789;-64
2022/03/02 03:20:20;;;;;;;;;60.75;40.00;;;;;9.71;48.74;101529.59;5057797;28;45345;-59
2022/03/02 03:22:47;;;;;;;;;58.50;45.50;;;;;9.71;49.54;101530.44;5057445;28;45996;-60
2022/03/02 03:25:13;;;;;;;;;50.50;42.75;;;;;9.70;49.92;101530.50;5057228;28;45399;-59
2022/03/02 03:27:40;;;;;;;;;50.00;41.25;;;;;9.67;49.37;101535.94;5062119;28;45369;-59
2022/03/02 03:30:08;;;;;;;;;54.75;44.75;;;;;9.64;49.42;101528.09;5075002;27;45528;-57
2022/03/02 03:32:34;;;;;;;;;51.75;41.00;;;;;9.66;49.11;101534.22;5092783;27;46176;-61
2022/03/02 03:35:00;;;;;;;;;42.75;39.75;;;;;9.63;49.90;101536.97;5082605;27;45488;-56
2022/03/02 03:37:26;;;;;;;;;42.75;40.25;;;;;9.62;49.45;101524.59;5074189;27;45577;-56
2022/03/02 03:39:51;;;;;;;;;48.25;39.75;;;;;9.60;49.41;101532.63;5061589;27;45388;-57
2022/03/02 03:42:17;;;;;;;;;58.25;45.00;;;;;9.53;48.96;101517.00;5089934;27;46066;-55
2022/03/02 03:44:42;;;;;;;;;47.25;42.00;;;;;9.49;48.93;101508.25;5056231;28;45493;-56
2022/03/02 03:47:08;;;;;;;;;54.00;42.75;;;;;9.45;49.70;101514.63;5072711;28;45340;-61
2022/03/02 03:49:34;;;;;;;;;55.00;41.75;;;;;9.46;49.61;101516.34;5067410;28;45440;-60
2022/03/02 03:51:59;;;;;;;;;56.00;42.25;;;;;9.48;49.64;101521.59;5068009;28;45315;-55
2022/03/02 03:54:25;;;;;;;;;53.25;40.50;;;;;9.40;49.21;101512.16;5077559;27;45501;-56
2022/03/02 03:56:51;;;;;;;;;40.25;37.25;;;;;9.44;49.09;101511.09;5072861;28;45417;-58
2022/03/02 03:59:16;;;;;;;;;53.25;40.00;;;;;9.43;49.75;101511.16;5065322;28;45261;-54
2022/03/02 04:01:42;;;;;;;;;56.50;43.75;;;;;9.41;49.28;101503.25;5057609;28;45269;-56
2022/03/02 04:04:07;;;;;;;;;41.50;39.25;;;;;9.35;50.01;101507.91;5057350;28;45268;-54
2022/03/02 04:06:33;;;;;;;;;47.00;40.75;;;;;9.38;49.98;101505.16;5071827;28;45871;-52
2022/03/02 04:08:58;;;;;;;;;44.75;40.00;;;;;9.34;50.00;101499.06;5073009;27;45580;-57
2022/03/02 04:11:23;;;;;;;;;50.00;42.50;;;;;9.30;49.61;101509.88;5062365;27;45222;-58
2022/03/02 04:13:49;;;;;;;;;45.50;40.75;;;;;9.28;50.05;101517.03;5070871;27;45507;-52
2022/03/02 04:16:15;;;;;;;;;53.75;40.50;;;;;9.27;50.22;101497.59;5077401;27;45487;-56
2022/03/02 04:18:40;;;;;;;;;47.00;42.00;;;;;9.30;50.23;101512.53;5068150;27;45421;-53
2022/03/02 04:21:06;;;;;;;;;53.75;43.75;;;;;9.28;50.54;101509.94;5061285;27;45459;-60
2022/03/02 04:23:31;;;;;;;;;48.00;41.50;;;;;9.29;50.43;101511.66;5062305;28;45368;-57
2022/03/02 04:25:57;;;;;;;;;46.00;39.50;;;;;9.28;50.04;101512.59;5056177;27;45433;-54
2022/03/02 04:28:22;;;;;;;;;54.25;42.50;;;;;9.25;50.53;101504.75;5055934;28;45583;-55
2022/03/02 04:30:48;;;;;;;;;46.75;39.50;;;;;9.24;50.27;101496.81;5068169;28;45474;-52
2022/03/02 04:33:14;;;;;;;;;45.00;38.50;;;;;9.21;50.51;101502.22;5061628;28;45466;-60
2022/03/02 04:35:40;;;;;;;;;51.25;44.00;;;;;9.17;50.10;101501.47;5071019;27;45471;-57
2022/03/02 04:38:06;;;;;;;;;46.25;40.50;;;;;9.20;49.91;101501.38;5060035;28;45439;-51
2022/03/02 04:40:32;;;;;;;;;45.75;41.00;;;;;9.21;50.51;101499.56;5074262;27;46305;-57
2022/03/02 04:42:58;;;;;;;;;47.75;40.75;;;;;9.18;50.38;101497.03;5076852;27;45490;-58
2022/03/02 04:45:25;;;;;;;;;49.00;41.50;;;;;9.18;49.68;101491.72;5074935;27;45282;-58
2022/03/02 04:47:52;;;;;;;;;45.50;35.75;;;;;9.14;49.79;101481.22;5076412;28;45425;-59
2022/03/02 04:50:19;;;;;;;;;56.25;41.25;;;;;9.14;50.12;101475.06;5066208;27;45504;-53
2022/03/02 04:52:45;;;;;;;;;46.25;40.75;;;;;9.14;50.53;101480.38;5058175;28;45422;-57
2022/03/02 04:55:11;;;;;;;;;49.50;41.25;;;;;9.12;50.06;101476.91;5067163;27;45347;-57
2022/03/02 04:57:38;;;;;;;;;50.50;42.00;;;;;9.11;49.78;101485.75;5074956;27;45598;-60
2022/03/02 05:00:19;;;;;;;;;57.75;40.75;;;;;9.12;49.95;101476.91;5071956;27;46303;-57
2022/03/02 05:02:45;;;;;;;;;53.75;41.75;;;;;9.17;49.99;101482.91;5066177;28;45394;-57
2022/03/02 05:05:12;;;;;;;;;56.50;39.25;;;;;9.10;49.12;101468.97;5060415;27;45251;-57
2022/03/02 05:07:38;;;;;;;;;50.25;40.00;;;;;9.10;50.30;101476.94;5056944;28;45555;-58
2022/03/02 05:10:06;;;;;;;;;48.75;43.25;;;;;9.11;50.17;101475.16;5061572;27;46349;-61
2022/03/02 05:12:32;;;;;;;;;51.00;42.00;;;;;9.11;49.74;101468.09;5062129;27;45932;-52
2022/03/02 05:14:57;;;;;;;;;50.50;42.75;;;;;9.09;49.61;101466.38;5068624;28;45505;-58
2022/03/02 05:17:23;;;;;;;;;52.50;41.25;;;;;9.08;50.38;101469.97;5072761;27;45485;-60
2022/03/02 05:19:49;;;;;;;;;57.50;44.50;;;;;9.06;49.49;101471.81;5100018;27;46068;-61
2022/03/02 05:22:14;;;;;;;;;51.25;41.75;;;;;9.07;49.89;101473.53;5061955;28;45532;-59
2022/03/02 05:24:40;;;;;;;;;52.75;43.50;;;;;9.08;49.90;101469.97;5054892;28;45366;-58
2022/03/02 05:27:07;;;;;;;;;56.00;41.25;;;;;9.03;49.90;101459.53;5062446;27;45630;-62
2022/03/02 05:29:33;;;;;;;;;50.00;41.25;;;;;9.01;50.24;101457.84;5070708;27;45321;-61
2022/03/02 05:31:59;;;;;;;;;58.25;43.75;;;;;9.02;50.17;101459.56;5056371;28;45315;-61
2022/03/02 05:34:25;;;;;;;;;47.25;40.25;;;;;9.00;50.27;101458.78;5066854;28;45543;-61
2022/03/02 05:36:50;;;;;;;;;50.75;42.50;;;;;8.99;50.11;101455.25;5070481;27;45396;-60
2022/03/02 05:39:15;;;;;;;;;50.50;41.00;;;;;8.98;50.34;101445.53;5077129;28;45326;-59
2022/03/02 05:41:41;;;;;;;;;35.00;31.00;;;;;8.99;50.13;101443.78;5076352;27;45393;-56
2022/03/02 05:44:08;;;;;;;;;49.50;40.75;;;;;8.99;50.56;101449.94;5075667;27;45448;-56
2022/03/02 05:46:36;;;;;;;;;38.25;32.50;;;;;9.02;49.97;101448.97;5090879;27;45736;-57
2022/03/02 05:49:04;;;;;;;;;48.25;39.75;;;;;8.98;50.13;101440.22;5067677;28;46451;-61
2022/03/02 05:51:30;;;;;;;;;57.00;42.25;;;;;8.97;49.99;101456.19;5078236;28;45302;-59
2022/03/02 05:53:59;;;;;;;;;45.50;40.25;;;;;9.00;50.66;101450.81;5077224;28;45315;-56
2022/03/02 05:56:25;;;;;;;;;56.75;43.75;;;;;8.99;50.22;101443.78;5077757;27;45432;-55
2022/03/02 05:58:51;;;;;;;;;60.00;43.50;;;;;9.01;50.17;101439.28;5059746;27;47124;-56
2022/03/02 06:01:17;;;;;;;;;51.75;42.25;;;;;8.93;50.05;101439.53;5059068;28;45226;-63
2022/03/02 06:03:44;;;;;;;;;54.50;41.75;;;;;8.93;50.10;101443.97;5063411;28;45468;-63
2022/03/02 06:06:10;;;;;;;;;51.00;41.25;;;;;9.00;50.20;101442.84;5079400;27;45281;-56
2022/03/02 06:08:35;;;;;;;;;52.00;43.00;;;;;8.98;50.34;101442.88;5076378;27;46153;-60
2022/03/02 06:11:01;;;;;;;;;55.75;42.50;;;;;8.94;49.86;101440.41;5070826;27;45474;-62
2022/03/02 06:13:26;;;;;;;;;53.50;43.50;;;;;8.95;49.38;101453.59;5075605;28;45429;-65
2022/03/02 06:15:52;;;;;;;;;40.25;35.25;;;;;8.94;49.94;101445.72;5077833;27;45636;-60
2022/03/02 06:18:18;;;;;;;;;42.00;35.25;;;;;8.92;50.82;101436.94;5069205;28;45441;-60
2022/03/02 06:20:43;;;;;;;;;52.75;39.75;;;;;8.94;49.27;101451.00;5083129;27;45482;-61
2022/03/02 06:23:09;;;;;;;;;45.00;40.00;;;;;8.92;50.08;101437.81;5085946;27;45660;-63
2022/03/02 06:25:35;;;;;;;;;55.50;40.25;;;;;8.89;49.89;101427.31;5067648;27;45712;-58
2022/03/02 06:28:01;;;;;;;;;46.25;41.50;;;;;8.90;49.45;101438.78;5097126;27;45402;-61
2022/03/02 06:30:26;;;;;;;;;44.25;36.50;;;;;8.94;49.96;101433.31;5087413;27;45399;-63
2022/03/02 06:32:53;;;;;;;;;56.75;43.75;;;;;8.96;49.22;101442.06;5097967;27;45352;-62
2022/03/02 06:35:19;;;;;;;;;51.50;39.25;;;;;8.92;49.13;101450.22;5098285;27;45528;-62
2022/03/02 06:37:46;;;;;;;;;53.00;41.50;;;;;8.87;49.85;101434.47;5080223;27;46443;-63
2022/03/02 06:40:13;;;;;;;;;46.00;42.00;;;;;8.92;49.42;101447.56;5078392;27;45474;-61
2022/03/02 06:43:06;;;;;;;;;45.75;40.00;;;;;8.96;49.15;101451.81;5067860;27;45548;-64
2022/03/02 06:45:58;;;;;;;;;45.75;38.25;;;;;8.95;49.32;101453.59;5059158;28;45373;-58
2022/03/02 06:48:34;;;;;;;;;52.75;41.75;;;;;8.99;49.14;101452.59;5075007;27;45569;-61
2022/03/02 06:51:01;;;;;;;;;49.75;41.00;;;;;8.95;49.55;101452.75;5090430;27;45423;-60
2022/03/02 06:53:31;;;;;;;;;43.75;38.00;;;;;8.95;49.51;101450.09;5065508;28;45646;-63
2022/03/02 07:07:34;;;;;;;;;50.25;40.00;;;;;9.04;48.98;101452.44;5109292;27;45280;-57
2022/03/02 07:10:00;;;;;;;;;53.50;42.75;;;;;9.18;49.35;101457.22;5093325;27;45407;-64
2022/03/02 07:12:28;;;;;;;;;55.75;42.00;;;;;9.23;48.19;101456.13;5075389;27;45463;-63
2022/03/02 07:14:54;;;;;;;;;45.25;39.50;;;;;9.24;48.57;101460.50;5092213;27;45399;-61
2022/03/02 07:17:21;;;;;;;;;55.00;40.50;;;;;9.27;47.79;101455.13;5089684;27;45489;-60
2022/03/02 07:19:47;;;;;;;;;49.00;42.25;;;;;9.11;48.95;101433.59;5092679;27;45380;-62
2022/03/02 07:22:17;;;;;;;;;45.50;40.25;;;;;9.18;48.91;101455.44;5077091;27;45479;-62
2022/03/02 07:24:52;;;;;;;;;44.25;40.50;;;;;9.17;49.16;101459.03;5091835;27;45315;-60
2022/03/02 07:27:18;;;;;;;;;50.50;40.75;;;;;9.11;48.95;101451.25;5090947;27;46226;-61
2022/03/02 07:29:46;;;;;;;;;45.00;37.25;;;;;9.15;48.55;101455.56;5092207;27;45511;-60
2022/03/02 07:32:15;;;;;;;;;45.75;40.25;;;;;9.16;48.61;101457.28;5092213;27;45273;-63
2022/03/02 07:34:42;;;;;;;;;55.75;42.00;;;;;9.12;48.65;101459.19;5093073;27;45555;-59
2022/03/02 07:37:09;;;;;;;;;52.25;43.50;;;;;9.12;48.26;101455.69;5092971;27;46878;-61
2022/03/02 07:39:36;;;;;;;;;48.75;42.75;;;;;9.19;48.77;101461.63;5092999;27;45289;-61
2022/03/02 07:42:03;;;;;;;;;52.25;40.50;;;;;9.18;48.72;101455.44;5092828;27;45670;-61
2022/03/02 07:44:29;;;;;;;;;41.00;38.00;;;;;9.10;49.13;101431.81;5094104;27;45400;-60
2022/03/02 07:46:54;;;;;;;;;38.50;38.00;;;;;9.25;48.40;101450.78;5093421;27;45605;-61
2022/03/02 07:49:23;;;;;;;;;49.00;39.25;;;;;9.23;48.80;101448.16;5091398;27;45356;-61
2022/03/02 07:51:51;;;;;;;;;50.00;42.00;;;;;9.22;48.50;101446.44;5092429;27;45467;-68
2022/03/02 07:54:22;;;;;;;;;55.50;45.25;;;;;9.16;48.40;101436.94;5093055;27;45199;-66
2022/03/02 07:56:50;;;;;;;;;55.00;42.25;;;;;9.26;49.13;101453.38;5092648;27;46518;-65
2022/03/02 07:59:17;;;;;;;;;48.50;41.75;;;;;9.11;48.33;101428.28;5092590;27;45246;-65
2022/03/02 08:01:44;;;;;;;;;49.25;38.25;;;;;9.16;49.49;101442.22;5091411;27;45464;-69
2022/03/02 08:04:10;;;;;;;;;50.25;41.75;;;;;9.21;48.24;101442.06;5105650;27;45287;-67
2022/03/02 08:06:38;;;;;;;;;49.25;43.50;;;;;9.29;48.44;101447.97;5089175;27;45519;-64
2022/03/02 08:09:05;;;;;;;;;54.25;41.00;;;;;9.27;48.17;101439.19;5080471;27;45388;-59
2022/03/02 08:11:33;;;;;;;;;49.75;41.50;;;;;9.33;48.42;101428.31;5066971;28;45517;-59
2022/03/02 08:14:00;;;;;;;;;54.25;44.75;;;;;9.53;47.83;101446.16;5072453;28;45322;-64
2022/03/02 08:16:29;;;;;;;;;50.75;41.00;;;;;9.59;47.28;101440.63;5068332;27;46064;-60
2022/03/02 08:18:57;;;;;;;;;49.50;40.50;;;;;9.57;46.84;101441.59;5077925;28;45342;-60
2022/03/02 08:21:23;;;;;;;;;45.75;35.75;;;;;9.70;47.20;101448.16;5078331;28;45254;-59
2022/03/02 08:23:51;;;;;;;;;44.50;41.50;;;;;9.72;45.68;101446.31;5062543;28;45496;-62
2022/03/02 08:26:23;;;;;;;;;46.50;40.50;;;;;9.72;46.27;101449.84;5076341;28;45313;-60
2022/03/02 08:28:53;;;;;;;;;42.00;31.75;;;;;9.64;45.93;101427.19;5079113;28;45343;-60
2022/03/02 08:31:19;;;;;;;;;45.75;39.50;;;;;9.75;45.63;101440.88;5078602;28;45472;-63
2022/03/02 08:33:45;;;;;;;;;38.50;37.25;;;;;9.84;45.40;101445.84;5079872;28;45388;-61
2022/03/02 08:36:11;;;;;;;;;37.50;35.50;;;;;9.85;45.86;101450.22;5079355;27;45386;-61
2022/03/02 08:38:42;;;;;;;;;56.00;40.75;;;;;9.91;44.25;101450.00;5077697;28;45317;-62
2022/03/02 08:41:10;;;;;;;;;39.50;35.25;;;;;9.79;44.72;101437.19;5077907;28;45609;-61
2022/03/02 08:43:36;;;;;;;;;44.75;36.50;;;;;9.73;45.94;101434.75;5078021;28;45309;-62
2022/03/02 08:46:04;;;;;;;;;50.25;41.00;;;;;9.97;46.05;101455.06;5079602;27;45306;-60
2022/03/02 08:48:30;;;;;;;;;45.50;40.50;;;;;9.97;44.95;101457.72;5079397;27;45326;-61
2022/03/02 08:50:59;;;;;;;;;44.25;35.00;;;;;10.00;45.46;101446.09;5077797;28;45397;-60
2022/03/02 08:53:26;;;;;;;;;55.50;42.50;;;;;10.15;45.71;101449.91;5078985;27;45520;-64
2022/03/02 08:55:53;;;;;;;;;46.25;41.25;;;;;10.26;45.66;101459.22;5078334;28;45379;-60
2022/03/02 08:58:19;;;;;;;;;48.75;39.75;;;;;10.33;45.04;101450.09;5078696;27;45237;-62
2022/03/02 09:00:46;;;;;;;;;33.00;28.50;;;;;10.37;45.01;101450.81;5079333;27;45254;-59
2022/03/02 09:03:15;;;;;;;;;45.00;38.00;;;;;10.42;45.23;101445.31;5078340;28;45488;-62
2022/03/02 09:05:42;;;;;;;;;56.00;41.50;;;;;10.47;44.88;101452.16;5077761;28;47034;-60
2022/03/02 09:08:08;;;;;;;;;41.00;37.50;;;;;10.52;44.25;101436.88;5078247;27;45294;-60
2022/03/02 09:10:35;;;;;;;;;38.50;35.00;;;;;10.53;44.35;101425.28;5077229;28;45442;-61
2022/03/02 09:13:02;;;;;;;;;50.25;40.75;;;;;10.66;44.26;101446.06;5078657;27;45523;-60
2022/03/02 09:15:28;;;;;;;;;36.75;34.50;;;;;10.59;44.55;101422.38;5077826;28;46234;-61
2022/03/02 09:17:54;;;;;;;;;51.25;40.25;;;;;10.66;43.97;101424.78;5077935;27;45492;-60
2022/03/02 09:20:21;;;;;;;;;46.75;40.00;;;;;10.77;44.60;101417.19;5077170;28;45430;-61
2022/03/02 09:22:46;;;;;;;;;47.75;39.00;;;;;10.80;43.72;101419.72;5077818;27;45559;-60
2022/03/02 09:25:12;;;;;;;;;49.00;41.75;;;;;10.78;43.45;101419.78;5077058;27;45406;-61
2022/03/02 09:27:39;;;;;;;;;48.25;39.75;;;;;10.85;43.90;101421.25;5064202;28;45495;-61
2022/03/02 09:30:09;;;;;;;;;40.25;37.00;;;;;10.88;43.87;101420.25;5057392;28;45295;-61
2022/03/02 09:32:38;;;;;;;;;45.75;39.75;;;;;10.87;43.60;101407.88;5057486;28;45401;-61
2022/03/02 09:35:04;;;;;;;;;45.00;39.00;;;;;11.01;44.82;101408.13;5056793;28;46205;-59
2022/03/02 09:37:35;;;;;;;;;53.75;42.25;;;;;11.09;43.18;101416.66;5056709;28;45263;-60
2022/03/02 09:40:02;;;;;;;;;49.50;41.75;;;;;11.16;43.11;101417.22;5056276;28;45358;-61
2022/03/02 09:42:39;;;;;;;;;49.75;39.50;;;;;11.14;43.44;101406.66;5057437;28;45290;-63
2022/03/02 09:45:08;;;;;;;;;43.75;39.75;;;;;11.04;43.03;101384.03;5057349;28;46475;-62
2022/03/02 09:47:43;;;;;;;;;46.50;40.75;;;;;11.36;43.14;101421.66;5057315;28;45375;-59
2022/03/02 09:50:12;;;;;;;;;49.25;39.25;;;;;11.42;42.76;101416.88;5056680;28;45440;-59
2022/03/02 09:52:41;;;;;;;;;51.25;39.75;;;;;11.38;42.67;101406.47;5055902;28;45383;-62
2022/03/02 09:55:12;;;;;;;;;43.25;39.00;;;;;11.50;42.31;101421.88;5055601;28;46236;-61
2022/03/02 09:57:44;;;;;;;;;43.00;33.50;;;;;11.50;42.48;101414.75;5056628;28;45284;-62
2022/03/02 10:00:12;;;;;;;;;49.00;40.25;;;;;11.53;42.52;101419.06;5056634;28;45424;-60
2022/03/02 10:02:40;;;;;;;;;47.50;37.75;;;;;11.53;42.94;101419.06;5056735;28;45384;-59
2022/03/02 10:05:12;;;;;;;;;50.75;40.50;;;;;11.55;42.81;101422.50;5064849;27;45563;-60
2022/03/02 10:07:52;;;;;;;;;48.75;35.50;;;;;11.58;41.92;101417.03;5096423;27;46692;-60
2022/03/02 10:10:22;;;;;;;;;48.75;40.50;;;;;11.55;42.25;101409.19;5078915;27;45276;-64
2022/03/02 10:12:54;;;;;;;;;54.00;41.50;;;;;11.59;41.91;101416.13;5097170;27;45446;-62
2022/03/02 10:15:19;;;;;;;;;45.75;39.50;;;;;11.63;42.45;101404.38;5097190;27;46225;-63
2022/03/02 10:17:48;;;;;;;;;45.75;40.25;;;;;11.77;42.34;101411.72;5096932;27;45500;-59
2022/03/02 10:20:17;;;;;;;;;52.00;41.50;;;;;11.81;41.84;101397.31;5078466;27;45388;-65
2022/03/02 10:23:05;;;;;;;;;49.25;40.25;;;;;11.86;41.92;101402.44;5097104;27;45545;-60
2022/03/02 10:26:08;;;;;;;;;48.75;39.75;;;;;11.93;42.07;101401.19;5096592;27;45385;-59
2022/03/02 10:28:58;;;;;;;;;49.25;42.00;;;;;12.04;41.65;101404.22;5076789;28;45453;-60
2022/03/02 10:31:44;;;;;;;;;44.75;39.00;;;;;12.07;41.51;101394.25;5057627;28;45395;-59
2022/03/02 10:34:16;;;;;;;;;43.75;38.75;;;;;12.13;41.60;101400.22;5058151;28;45447;-60
2022/03/02 10:36:45;;;;;;;;;49.25;42.50;;;;;12.04;41.09;101372.22;5076256;28;46165;-59
2022/03/02 10:39:31;;;;;;;;;55.25;43.75;;;;;12.19;41.52;101389.25;5074826;28;45551;-64
2022/03/02 10:42:02;;;;;;;;;51.75;42.00;;;;;12.30;40.64;101379.75;5076392;28;45439;-60
2022/03/02 10:44:46;;;;;;;;;52.75;42.50;;;;;12.49;41.09;101384.16;5076467;28;44771;-60
2022/03/02 10:47:17;;;;;;;;;54.25;44.00;;;;;12.57;41.34;101381.97;5076207;28;45287;-61
2022/03/02 10:49:44;;;;;;;;;53.50;41.00;;;;;12.59;40.48;101369.41;5076073;28;45364;-61
2022/03/02 10:52:14;;;;;;;;;52.25;41.75;;;;;12.71;40.88;101374.09;5076488;28;45448;-60
2022/03/02 10:54:41;;;;;;;;;52.75;44.50;;;;;12.81;40.40;101354.00;5076786;28;45251;-62
2022/03/02 10:57:11;;;;;;;;;58.00;46.00;;;;;13.05;40.26;101361.63;5091364;27;45565;-61
2022/03/02 10:59:38;;;;;;;;;54.00;42.00;;;;;13.07;39.86;101352.59;5097198;27;45174;-60
2022/03/02 11:02:04;;;;;;;;;49.75;39.50;;;;;13.10;39.81;101356.91;5079006;27;45417;-59
2022/03/02 11:04:30;;;;;;;;;48.25;41.00;;;;;13.16;39.47;101364.59;5097098;27;45768;-60
2022/03/02 11:06:56;;;;;;;;;52.00;41.50;;;;;13.17;39.02;101356.50;5096447;27;46160;-60
2022/03/02 11:09:25;;;;;;;;;50.50;41.25;;;;;13.17;39.57;101356.50;5060905;27;45488;-60
2022/03/02 11:11:53;;;;;;;;;53.00;40.25;;;;;13.21;39.77;101355.41;5096828;27;45436;-61
2022/03/02 11:14:19;;;;;;;;;52.25;39.75;;;;;13.17;39.66;101339.59;5078295;27;45570;-60
2022/03/02 11:16:46;;;;;;;;;52.00;40.50;;;;;13.25;40.36;101348.06;5096218;27;45198;-61
2022/03/02 11:19:16;;;;;;;;;55.75;43.00;;;;;13.23;39.36;101328.59;5096615;27;45341;-61
2022/03/02 11:21:44;;;;;;;;;54.50;44.00;;;;;13.34;39.32;101346.72;5095897;27;45436;-60
2022/03/02 11:24:15;;;;;;;;;53.00;43.00;;;;;13.31;38.75;101320.19;5096974;27;45454;-62
2022/03/02 11:26:42;;;;;;;;;53.00;43.75;;;;;13.41;39.01;101330.28;5096323;27;46091;-61